If you wish to contribute or participate in the discussions about articles you are invited to join SKYbrary as a registered user

 Actions

Hughenden Airport

From SKYbrary Wiki

YHUG
Airport
ICAO: YHUG – IATA: HGD
Summary
Name Hughenden Airport
Region Asia and Pacific
Territory Australia AU.gif
Location Hughenden, Queensland
Serving Hughenden
Elevation 317.906 m
1,043 ft
1,043 ft317.906 m
Type small airport
Coordinates 20° 48' 54.00" S, 144° 13' 30.00" E
Runways
Designator Length Width Surface ROPS
6/24 930 m3,051.181 ft
18 m59.055 ft
GVL /
12/30 1644 m5,393.701 ft
30 m98.425 ft
ASP /


METAR
Observation YHUG 161400Z AUTO 13007KT 9999 // NCD 22/10 Q1017
Station Hughenden Airport
Date/Time 16 April 2019 14:00:00
Wind direction 130°
Wind speed 07 kts
Lowest cloud amount no clouds detected
Temperature 22°C
Dew point 10°C
Humidity 46%
QNH 1017 hPa
Weather condition n/a